Time;durP1;ratioP1;P1;durP2;ratioP2;P2;SDS_P1;SDS_P2;PMS_P1;PMS_P2;Temp;Humidity;BMP_temperature;BMP_pressure;BME280_temperature;BME280_humidity;BME280_pressure;Samples;Min_cycle;Max_cycle;Signal;HPM_P1;HPM_P2
2023/08/20 00:02:27;;;;;;;21.40;14.20;;;23.60;99.90;;;;;;5105492;27;20467;-72
2023/08/20 00:04:57;;;;;;;21.88;14.15;;;23.60;99.90;;;;;;5106084;27;20465;-73
2023/08/20 00:07:24;;;;;;;21.42;13.80;;;23.50;99.90;;;;;;5123339;27;20490;-72
2023/08/20 00:09:50;;;;;;;19.63;14.30;;;23.60;99.90;;;;;;5100850;27;20525;-72
2023/08/20 00:12:16;;;;;;;21.52;13.73;;;23.50;99.90;;;;;;5112646;27;20825;-73
2023/08/20 00:15:05;;;;;;;19.30;14.15;;;23.50;99.90;;;;;;5103150;27;20417;-72
2023/08/20 00:17:37;;;;;;;18.58;13.73;;;23.50;99.90;;;;;;5124728;27;20424;-72
2023/08/20 00:20:12;;;;;;;24.10;14.85;;;23.50;99.90;;;;;;5098797;27;20438;-72
2023/08/20 00:22:45;;;;;;;21.30;14.15;;;23.50;99.90;;;;;;5097877;27;21051;-73
2023/08/20 00:25:13;;;;;;;23.30;14.77;;;23.50;99.90;;;;;;5114072;27;20416;-73
2023/08/20 00:27:40;;;;;;;20.35;13.25;;;23.50;99.90;;;;;;5107142;27;20404;-72
2023/08/20 00:30:08;;;;;;;18.45;13.60;;;23.40;99.90;;;;;;5114023;27;20508;-72
2023/08/20 00:32:35;;;;;;;18.77;14.25;;;23.40;99.90;;;;;;5094395;27;20413;-72
2023/08/20 00:35:02;;;;;;;18.60;13.77;;;23.50;99.90;;;;;;5114270;27;20445;-72
2023/08/20 00:37:30;;;;;;;18.63;13.38;;;23.50;99.90;;;;;;5122224;27;20430;-72
2023/08/20 00:40:00;;;;;;;21.80;13.73;;;23.50;99.90;;;;;;5099015;27;20851;-72
2023/08/20 00:42:26;;;;;;;22.50;14.40;;;23.50;99.90;;;;;;5124199;27;21347;-72
2023/08/20 00:44:53;;;;;;;24.02;14.45;;;23.40;99.90;;;;;;5120279;27;21479;-73
2023/08/20 00:47:21;;;;;;;17.98;14.13;;;23.40;99.90;;;;;;5092855;27;20637;-73
2023/08/20 00:49:49;;;;;;;23.80;14.98;;;23.40;99.90;;;;;;5114138;27;20917;-75
2023/08/20 00:52:17;;;;;;;20.13;14.10;;;23.30;99.90;;;;;;5121451;27;20401;-73
2023/08/20 00:54:48;;;;;;;18.02;13.85;;;23.30;99.90;;;;;;5123574;27;20412;-72
2023/08/20 00:57:17;;;;;;;21.52;14.70;;;23.30;99.90;;;;;;5135962;27;20398;-72
2023/08/20 00:59:46;;;;;;;18.05;13.98;;;23.30;99.90;;;;;;5137257;27;20500;-72
2023/08/20 01:02:12;;;;;;;20.23;14.20;;;23.30;99.90;;;;;;5107594;27;20883;-72
2023/08/20 01:04:38;;;;;;;20.40;13.87;;;23.30;99.90;;;;;;5133227;27;20467;-73
2023/08/20 01:07:31;;;;;;;20.38;13.77;;;23.30;99.90;;;;;;5136419;27;20440;-72
2023/08/20 01:10:18;;;;;;;20.93;13.70;;;23.30;99.90;;;;;;5117199;27;21088;-72
2023/08/20 01:12:47;;;;;;;18.95;13.55;;;23.30;99.90;;;;;;5144889;27;20415;-72
2023/08/20 01:15:14;;;;;;;22.13;13.88;;;23.30;99.90;;;;;;5115513;27;20953;-71
2023/08/20 01:17:41;;;;;;;19.98;12.82;;;23.30;99.90;;;;;;5114679;27;20738;-72
2023/08/20 01:20:11;;;;;;;15.57;13.05;;;23.30;99.90;;;;;;5134626;27;20410;-72
2023/08/20 01:23:00;;;;;;;20.50;13.35;;;23.30;99.90;;;;;;5133424;27;20489;-72
2023/08/20 01:25:56;;;;;;;18.05;13.60;;;23.30;99.90;;;;;;5119058;27;20857;-71
2023/08/20 01:28:30;;;;;;;15.93;12.90;;;23.30;99.90;;;;;;5095946;27;20483;-71
2023/08/20 01:31:00;;;;;;;19.58;13.38;;;23.20;99.90;;;;;;5114356;27;20413;-71
2023/08/20 01:33:28;;;;;;;19.13;12.57;;;23.20;99.90;;;;;;5128952;27;20460;-72
2023/08/20 01:35:55;;;;;;;17.73;12.80;;;23.20;99.90;;;;;;5117757;27;20504;-71
2023/08/20 01:38:22;;;;;;;19.30;13.30;;;23.20;99.90;;;;;;5140000;27;20401;-71
2023/08/20 01:40:49;;;;;;;18.85;12.55;;;23.20;99.90;;;;;;5098208;27;20397;-71
2023/08/20 01:43:16;;;;;;;18.15;12.50;;;23.20;99.90;;;;;;5137333;27;20852;-71
2023/08/20 01:45:42;;;;;;;18.80;12.55;;;23.10;99.90;;;;;;5133259;27;20430;-71
2023/08/20 01:48:08;;;;;;;18.25;12.50;;;23.10;99.90;;;;;;5132597;27;20764;-71
2023/08/20 01:50:35;;;;;;;17.70;12.38;;;23.10;99.90;;;;;;5126766;27;20410;-71
2023/08/20 01:53:03;;;;;;;19.67;12.13;;;23.10;99.90;;;;;;5139420;27;20409;-73
2023/08/20 01:55:29;;;;;;;14.95;11.90;;;23.10;99.90;;;;;;5117710;27;20385;-72
2023/08/20 01:57:55;;;;;;;18.45;12.45;;;23.10;99.90;;;;;;5135156;27;20529;-72
2023/08/20 02:00:21;;;;;;;16.38;12.48;;;23.10;99.90;;;;;;5098793;27;20398;-72
2023/08/20 02:02:48;;;;;;;23.23;12.77;;;23.10;99.90;;;;;;5124463;27;20404;-73
2023/08/20 02:05:15;;;;;;;17.65;12.68;;;23.10;99.90;;;;;;5115795;27;20410;-73
2023/08/20 02:07:41;;;;;;;17.60;12.70;;;23.10;99.90;;;;;;5103664;27;20405;-73
2023/08/20 02:10:08;;;;;;;17.47;12.53;;;23.10;99.90;;;;;;5095025;27;20434;-73
2023/08/20 02:12:35;;;;;;;17.10;12.45;;;23.10;99.90;;;;;;5132313;27;20405;-73
2023/08/20 02:15:03;;;;;;;19.52;12.35;;;23.10;99.90;;;;;;5112757;27;20418;-73
2023/08/20 02:17:30;;;;;;;19.50;13.07;;;23.10;99.90;;;;;;5129970;27;20475;-73
2023/08/20 02:19:56;;;;;;;17.85;12.82;;;23.10;99.90;;;;;;5137303;27;21237;-72
2023/08/20 02:22:22;;;;;;;20.30;12.68;;;23.00;99.90;;;;;;5123874;27;21297;-73
2023/08/20 02:24:48;;;;;;;20.23;12.50;;;23.00;99.90;;;;;;5121703;27;20416;-73
2023/08/20 02:27:14;;;;;;;18.00;12.23;;;22.90;99.90;;;;;;5114082;27;20406;-73
2023/08/20 02:29:41;;;;;;;18.02;12.55;;;23.00;99.90;;;;;;5120118;27;20401;-73
2023/08/20 02:32:08;;;;;;;20.08;12.73;;;23.00;99.90;;;;;;5123094;27;21031;-73
2023/08/20 02:34:34;;;;;;;18.05;12.95;;;23.00;99.90;;;;;;5131309;27;20908;-73
2023/08/20 02:37:01;;;;;;;19.85;13.10;;;22.90;99.90;;;;;;5139772;27;21024;-73
2023/08/20 02:39:27;;;;;;;17.65;12.88;;;22.90;99.90;;;;;;5135381;27;20405;-73
2023/08/20 02:41:53;;;;;;;18.33;12.57;;;22.90;99.90;;;;;;5105151;27;20397;-73
2023/08/20 02:44:20;;;;;;;20.42;12.43;;;22.90;99.90;;;;;;5139229;27;20792;-72
2023/08/20 02:46:46;;;;;;;19.73;13.02;;;22.80;99.90;;;;;;5121970;27;20405;-72
2023/08/20 02:49:14;;;;;;;18.40;12.70;;;22.90;99.90;;;;;;5142348;27;20892;-73
2023/08/20 02:51:43;;;;;;;19.60;13.63;;;22.90;99.90;;;;;;5119449;27;20403;-73
2023/08/20 02:54:09;;;;;;;20.10;12.38;;;22.80;99.90;;;;;;5133509;27;20420;-73
2023/08/20 02:56:35;;;;;;;19.73;12.35;;;22.90;99.90;;;;;;5105269;27;20926;-72
2023/08/20 02:59:02;;;;;;;16.40;12.43;;;22.90;99.90;;;;;;5118718;27;20403;-72
2023/08/20 03:01:28;;;;;;;18.13;12.50;;;22.80;99.90;;;;;;5125839;27;20401;-73
2023/08/20 03:03:54;;;;;;;14.63;12.10;;;22.80;99.90;;;;;;5124214;27;20418;-72
2023/08/20 03:06:21;;;;;;;20.48;12.30;;;22.90;99.90;;;;;;5104024;27;20963;-73
2023/08/20 03:08:47;;;;;;;19.27;12.93;;;22.80;99.90;;;;;;5127059;27;20424;-73
2023/08/20 03:11:13;;;;;;;18.27;12.65;;;22.80;99.90;;;;;;5118466;27;20410;-72
2023/08/20 03:13:39;;;;;;;21.75;13.20;;;22.80;99.90;;;;;;5136787;27;20414;-72
2023/08/20 03:16:06;;;;;;;23.38;13.70;;;22.80;99.90;;;;;;5113505;27;20410;-73
2023/08/20 03:18:32;;;;;;;20.05;13.10;;;22.90;99.90;;;;;;5137189;27;20409;-73
2023/08/20 03:20:58;;;;;;;19.90;12.73;;;22.90;99.90;;;;;;5132147;27;20483;-73
2023/08/20 03:23:25;;;;;;;18.42;12.70;;;22.90;99.90;;;;;;5139041;27;20408;-72
2023/08/20 03:25:52;;;;;;;23.02;13.40;;;22.90;99.90;;;;;;5136350;27;20457;-72
2023/08/20 03:28:22;;;;;;;19.92;12.77;;;22.90;99.90;;;;;;5104398;27;20402;-72
2023/08/20 03:30:48;;;;;;;19.63;13.07;;;22.90;99.90;;;;;;5116565;27;21164;-73
2023/08/20 03:33:14;;;;;;;20.90;13.40;;;22.90;99.90;;;;;;5116360;27;20485;-72
2023/08/20 03:35:41;;;;;;;22.13;13.63;;;22.90;99.90;;;;;;5115685;27;20434;-72
2023/08/20 03:38:07;;;;;;;20.50;13.50;;;22.90;99.90;;;;;;5138663;27;20425;-73
2023/08/20 03:40:33;;;;;;;20.00;13.52;;;22.90;99.90;;;;;;5116251;27;20407;-73
2023/08/20 03:43:00;;;;;;;20.80;13.90;;;22.90;99.90;;;;;;5122027;27;20407;-73
2023/08/20 03:45:28;;;;;;;19.98;13.63;;;23.00;99.90;;;;;;5139511;27;20996;-73
2023/08/20 03:47:54;;;;;;;19.20;13.25;;;23.00;99.90;;;;;;5123365;27;20453;-73
2023/08/20 03:50:20;;;;;;;21.23;13.45;;;23.10;99.90;;;;;;5121690;27;20406;-72
2023/08/20 03:52:46;;;;;;;19.92;13.88;;;23.10;99.90;;;;;;5122972;27;20492;-72
2023/08/20 03:55:12;;;;;;;16.98;12.80;;;23.10;99.90;;;;;;5138162;27;20594;-73
2023/08/20 03:57:38;;;;;;;22.92;13.25;;;23.20;99.90;;;;;;5136909;27;20405;-72
2023/08/20 04:00:08;;;;;;;17.93;13.37;;;23.20;99.90;;;;;;5134712;27;20417;-73
2023/08/20 04:02:35;;;;;;;22.25;13.60;;;23.20;99.90;;;;;;5135303;27;20583;-73
2023/08/20 04:05:01;;;;;;;20.42;13.40;;;23.20;99.90;;;;;;5136972;27;20417;-72
2023/08/20 04:07:29;;;;;;;20.60;13.45;;;23.30;99.90;;;;;;5136071;27;20750;-73
2023/08/20 04:09:56;;;;;;;20.88;13.52;;;23.30;99.90;;;;;;5103791;27;20494;-72
2023/08/20 04:12:22;;;;;;;19.27;12.80;;;23.30;99.90;;;;;;5100637;27;20397;-72
2023/08/20 04:14:48;;;;;;;17.95;12.60;;;23.30;99.90;;;;;;5098481;27;20402;-72
2023/08/20 04:17:15;;;;;;;16.43;12.70;;;23.30;99.90;;;;;;5130990;27;20426;-73
2023/08/20 04:19:42;;;;;;;16.55;12.18;;;23.40;99.90;;;;;;5132851;27;20488;-73
2023/08/20 04:22:09;;;;;;;17.52;12.50;;;23.40;99.90;;;;;;5101141;27;20455;-73
2023/08/20 04:24:35;;;;;;;20.43;12.80;;;23.40;99.90;;;;;;5136217;27;20408;-73
2023/08/20 04:27:01;;;;;;;20.50;12.70;;;23.40;99.90;;;;;;5136629;27;20396;-73
2023/08/20 04:29:28;;;;;;;17.38;12.65;;;23.50;99.90;;;;;;5120713;27;20449;-73
2023/08/20 04:31:54;;;;;;;18.50;12.38;;;23.50;99.90;;;;;;5097769;27;20516;-73
2023/08/20 04:34:20;;;;;;;21.58;12.73;;;23.50;99.90;;;;;;5114570;27;20400;-73
2023/08/20 04:36:46;;;;;;;19.77;12.53;;;23.50;99.90;;;;;;5121836;27;20395;-73
2023/08/20 04:39:13;;;;;;;19.88;12.95;;;23.50;99.90;;;;;;5117183;27;20414;-73
2023/08/20 04:41:39;;;;;;;20.17;12.73;;;23.50;99.90;;;;;;5143807;27;20404;-73
2023/08/20 04:44:05;;;;;;;21.98;13.30;;;23.60;99.90;;;;;;5134344;27;20436;-73
2023/08/20 04:46:32;;;;;;;21.25;13.80;;;23.60;99.90;;;;;;5140179;27;20445;-72
2023/08/20 04:48:59;;;;;;;20.88;13.25;;;23.60;99.90;;;;;;5118357;27;20413;-73
2023/08/20 04:51:26;;;;;;;20.07;13.47;;;23.60;99.90;;;;;;5138211;27;20398;-73
2023/08/20 04:53:52;;;;;;;19.40;12.85;;;23.60;99.90;;;;;;5119055;27;20422;-73
2023/08/20 04:58:20;;;;;;;22.15;13.00;;;23.70;99.90;;;;;;5071694;27;21122;-72
2023/08/20 05:00:46;;;;;;;19.33;13.00;;;23.70;99.90;;;;;;5065854;28;20422;-73
2023/08/20 05:03:12;;;;;;;20.75;12.90;;;23.70;99.90;;;;;;5098780;27;20446;-72
2023/08/20 05:05:39;;;;;;;20.70;13.07;;;23.70;99.90;;;;;;5049062;28;20952;-72
2023/08/20 05:08:05;;;;;;;21.08;13.68;;;23.70;99.90;;;;;;5056023;28;20442;-72
2023/08/20 05:10:31;;;;;;;20.70;14.23;;;23.70;99.90;;;;;;5083198;28;20413;-72
2023/08/20 05:12:57;;;;;;;22.45;14.10;;;23.70;99.90;;;;;;5068145;28;20843;-71
2023/08/20 05:15:24;;;;;;;19.25;13.75;;;23.80;99.90;;;;;;5065112;28;20440;-71
2023/08/20 05:17:50;;;;;;;21.40;14.47;;;23.80;99.90;;;;;;5081164;28;20428;-72
2023/08/20 05:20:16;;;;;;;20.43;13.70;;;23.80;99.90;;;;;;5065647;28;20508;-72
2023/08/20 05:22:43;;;;;;;19.17;13.10;;;23.90;99.90;;;;;;5080933;28;20400;-72
2023/08/20 05:25:09;;;;;;;21.13;13.63;;;23.90;99.90;;;;;;5067552;28;20418;-72
2023/08/20 05:27:36;;;;;;;23.10;13.27;;;24.00;99.90;;;;;;5076122;28;20435;-72
2023/08/20 05:30:03;;;;;;;23.83;14.13;;;24.00;99.90;;;;;;5071363;28;21128;-72
2023/08/20 05:32:29;;;;;;;20.58;13.45;;;24.00;99.90;;;;;;5063715;28;20434;-72
2023/08/20 05:34:56;;;;;;;22.30;13.18;;;24.00;99.90;;;;;;5068089;28;20416;-72
2023/08/20 05:37:22;;;;;;;21.95;14.05;;;24.10;99.90;;;;;;5067007;28;20418;-72
2023/08/20 05:39:48;;;;;;;21.30;14.25;;;24.10;99.90;;;;;;5063457;28;20885;-72
2023/08/20 05:42:14;;;;;;;24.20;14.25;;;24.10;99.90;;;;;;5070197;28;20424;-72
2023/08/20 05:44:42;;;;;;;21.20;15.25;;;24.10;99.90;;;;;;5074746;28;20772;-72
2023/08/20 05:47:08;;;;;;;22.30;16.20;;;24.20;99.90;;;;;;5069176;28;20430;-72
2023/08/20 05:49:34;;;;;;;24.48;16.08;;;24.30;99.90;;;;;;5101042;28;20916;-72
2023/08/20 05:52:01;;;;;;;22.30;15.13;;;24.30;99.90;;;;;;5069993;28;20423;-72
2023/08/20 05:54:27;;;;;;;25.58;16.20;;;24.30;99.90;;;;;;5084284;28;20448;-72
2023/08/20 05:56:53;;;;;;;23.05;16.48;;;24.40;99.90;;;;;;5062407;28;20421;-72
2023/08/20 05:59:19;;;;;;;24.83;17.45;;;24.40;99.90;;;;;;5069130;28;20905;-72
2023/08/20 06:01:46;;;;;;;26.88;16.33;;;24.50;99.90;;;;;;5075643;28;20415;-72
2023/08/20 06:04:12;;;;;;;24.87;17.40;;;24.50;99.90;;;;;;5101636;27;20980;-72
2023/08/20 06:06:40;;;;;;;21.50;18.45;;;24.50;99.90;;;;;;5073494;28;20416;-72
2023/08/20 06:09:06;;;;;;;26.98;20.50;;;24.50;99.90;;;;;;5062824;28;20477;-72
2023/08/20 06:11:32;;;;;;;29.03;21.87;;;24.60;99.90;;;;;;5057944;28;20410;-72
2023/08/20 06:13:58;;;;;;;27.57;22.37;;;24.70;99.90;;;;;;5061296;28;20523;-72
2023/08/20 06:16:25;;;;;;;30.40;22.07;;;24.70;99.90;;;;;;5059356;28;20423;-72
2023/08/20 06:18:51;;;;;;;30.40;22.50;;;24.70;99.90;;;;;;5045291;28;20445;-72
2023/08/20 06:21:17;;;;;;;26.73;22.33;;;24.70;99.90;;;;;;5031627;28;20396;-72
2023/08/20 06:23:43;;;;;;;25.90;21.08;;;24.80;99.90;;;;;;5051966;28;20408;-72
2023/08/20 06:26:11;;;;;;;26.85;21.23;;;24.80;99.90;;;;;;5055170;28;20420;-71
2023/08/20 06:28:37;;;;;;;28.85;20.88;;;24.90;99.90;;;;;;5057280;28;20500;-71
2023/08/20 06:31:04;;;;;;;28.75;20.33;;;24.90;99.90;;;;;;5090510;28;20413;-71
2023/08/20 06:33:30;;;;;;;24.65;19.63;;;24.90;99.90;;;;;;5086175;28;20581;-71
2023/08/20 06:35:56;;;;;;;25.93;19.10;;;25.00;99.90;;;;;;5049819;28;20411;-71
2023/08/20 06:38:22;;;;;;;23.60;19.52;;;25.00;99.90;;;;;;5088159;28;20413;-71
2023/08/20 06:40:49;;;;;;;24.15;18.98;;;25.10;99.90;;;;;;5059485;28;20415;-71
2023/08/20 06:43:16;;;;;;;25.57;19.67;;;25.10;99.90;;;;;;5051611;28;20920;-71
2023/08/20 06:45:42;;;;;;;26.85;19.40;;;25.20;99.90;;;;;;5049916;28;20866;-71
2023/08/20 06:48:08;;;;;;;25.88;20.13;;;25.20;99.90;;;;;;5052984;28;20417;-71
2023/08/20 06:50:34;;;;;;;24.60;20.17;;;25.30;99.90;;;;;;5058816;28;20699;-71
2023/08/20 06:53:01;;;;;;;24.80;19.55;;;25.30;99.90;;;;;;5054331;28;22602;-72
2023/08/20 06:55:27;;;;;;;26.13;20.42;;;25.40;99.90;;;;;;5055966;28;20492;-72
2023/08/20 06:57:53;;;;;;;25.70;19.67;;;25.40;99.90;;;;;;5085050;28;20427;-73
2023/08/20 07:00:20;;;;;;;26.45;19.58;;;25.50;99.90;;;;;;5049547;28;20417;-72
2023/08/20 07:02:46;;;;;;;24.38;19.33;;;25.50;99.90;;;;;;5019245;28;21194;-73
2023/08/20 07:05:14;;;;;;;25.00;19.37;;;25.60;99.90;;;;;;5080947;28;20413;-73
2023/08/20 07:07:41;;;;;;;25.13;18.87;;;25.60;99.90;;;;;;5058416;28;20938;-73
2023/08/20 07:10:07;;;;;;;23.83;18.60;;;25.60;99.90;;;;;;5049185;28;20417;-72
2023/08/20 07:12:34;;;;;;;27.08;19.50;;;25.70;99.90;;;;;;5053268;28;20469;-72
2023/08/20 07:15:00;;;;;;;22.13;18.42;;;25.70;99.90;;;;;;5054432;28;20942;-72
2023/08/20 07:17:26;;;;;;;21.90;18.30;;;25.80;99.90;;;;;;5068363;28;20448;-72
2023/08/20 07:19:52;;;;;;;22.77;18.43;;;25.80;99.90;;;;;;5053551;28;20409;-72
2023/08/20 07:22:19;;;;;;;22.13;17.73;;;25.90;99.90;;;;;;5050721;28;20917;-72
2023/08/20 07:24:46;;;;;;;25.88;17.98;;;25.90;99.90;;;;;;5047958;28;20863;-72
2023/08/20 07:27:12;;;;;;;21.37;17.50;;;26.00;99.90;;;;;;5045842;28;20510;-73
2023/08/20 07:29:38;;;;;;;23.17;17.13;;;26.00;99.90;;;;;;5052234;28;20417;-72
2023/08/20 07:32:05;;;;;;;20.88;17.08;;;26.10;99.90;;;;;;5084725;27;20429;-72
2023/08/20 07:34:33;;;;;;;22.30;17.40;;;26.20;99.90;;;;;;5052943;28;20420;-72
2023/08/20 07:36:59;;;;;;;20.80;16.67;;;26.30;99.90;;;;;;5047446;28;20425;-72
2023/08/20 07:39:25;;;;;;;20.50;16.67;;;26.30;99.90;;;;;;5043536;28;20450;-72
2023/08/20 07:41:52;;;;;;;18.55;15.75;;;26.30;99.90;;;;;;5055238;28;20421;-72
2023/08/20 07:44:18;;;;;;;18.45;13.80;;;26.40;99.90;;;;;;5031693;28;20941;-72
2023/08/20 07:46:44;;;;;;;19.42;13.88;;;26.50;99.90;;;;;;5048088;28;20423;-72
2023/08/20 07:49:11;;;;;;;26.65;14.90;;;26.60;99.90;;;;;;5051344;28;20414;-72
2023/08/20 07:51:37;;;;;;;19.63;13.15;;;26.70;99.90;;;;;;5048227;28;20417;-72
2023/08/20 07:54:03;;;;;;;20.10;13.70;;;26.70;99.90;;;;;;5053450;28;20419;-72
2023/08/20 07:56:30;;;;;;;17.05;12.13;;;26.80;99.90;;;;;;5083793;28;20482;-72
2023/08/20 07:58:56;;;;;;;19.88;13.27;;;26.80;99.90;;;;;;5056558;28;20500;-72
2023/08/20 08:01:22;;;;;;;20.38;12.80;;;26.90;99.90;;;;;;5035418;28;20417;-72
2023/08/20 08:03:48;;;;;;;20.10;13.57;;;26.90;99.90;;;;;;5056980;28;20813;-72
2023/08/20 08:06:18;;;;;;;20.70;13.02;;;26.90;99.90;;;;;;5048781;28;20443;-72
2023/08/20 08:08:44;;;;;;;19.08;13.18;;;27.00;99.90;;;;;;5052920;28;20431;-72
2023/08/20 08:11:10;;;;;;;18.38;13.00;;;27.10;99.90;;;;;;5058689;28;20494;-72
2023/08/20 08:13:37;;;;;;;19.90;13.10;;;27.10;99.90;;;;;;5042653;28;20447;-72
2023/08/20 08:16:03;;;;;;;19.42;11.23;;;27.20;99.90;;;;;;5040558;28;20932;-72
2023/08/20 08:18:29;;;;;;;17.77;11.23;;;27.30;99.90;;;;;;5060612;28;20466;-72
2023/08/20 08:20:55;;;;;;;16.15;10.85;;;27.40;99.90;;;;;;5055367;28;20425;-72
2023/08/20 08:23:22;;;;;;;17.08;11.60;;;27.40;99.90;;;;;;5063066;28;20904;-72
2023/08/20 08:25:48;;;;;;;19.63;10.95;;;27.50;99.90;;;;;;5045587;28;21050;-72
2023/08/20 08:28:15;;;;;;;19.23;11.23;;;27.60;99.90;;;;;;5046224;28;20405;-73
2023/08/20 08:30:41;;;;;;;15.13;10.85;;;27.70;99.90;;;;;;5054756;28;20414;-73
2023/08/20 08:33:08;;;;;;;17.35;10.88;;;27.70;99.90;;;;;;5086768;28;20416;-72
2023/08/20 08:35:34;;;;;;;14.90;10.97;;;27.80;99.90;;;;;;5068166;28;20409;-72
2023/08/20 08:38:03;;;;;;;15.90;10.93;;;27.80;99.90;;;;;;5051704;28;20842;-72
2023/08/20 08:40:31;;;;;;;19.58;11.00;;;27.90;99.90;;;;;;5053678;28;20420;-72
2023/08/20 08:42:58;;;;;;;18.70;10.52;;;28.00;99.90;;;;;;5089503;28;20404;-72
2023/08/20 08:45:26;;;;;;;20.47;10.53;;;28.10;99.90;;;;;;5057638;28;20498;-72
2023/08/20 08:47:55;;;;;;;17.15;11.07;;;28.10;99.90;;;;;;5063085;28;20415;-73
2023/08/20 08:50:22;;;;;;;17.30;11.07;;;28.20;99.90;;;;;;5056860;28;20448;-73
2023/08/20 08:52:52;;;;;;;17.02;10.95;;;28.30;99.90;;;;;;5066192;28;20900;-73
2023/08/20 08:55:19;;;;;;;19.02;10.80;;;28.30;99.90;;;;;;5058340;28;20483;-73
2023/08/20 08:57:45;;;;;;;16.27;10.80;;;28.40;99.90;;;;;;5079413;28;20920;-73
2023/08/20 09:00:13;;;;;;;18.50;10.60;;;28.50;99.90;;;;;;5047394;28;20409;-73
2023/08/20 09:02:39;;;;;;;18.67;10.40;;;28.50;99.90;;;;;;5063594;28;20521;-73
2023/08/20 09:05:07;;;;;;;15.45;10.10;;;28.60;99.90;;;;;;5078228;28;20849;-73
2023/08/20 09:07:33;;;;;;;16.03;9.43;;;28.70;99.90;;;;;;5090424;28;20417;-73
2023/08/20 09:10:00;;;;;;;15.83;9.00;;;28.80;99.90;;;;;;5051522;28;20962;-73
2023/08/20 09:12:27;;;;;;;16.65;9.05;;;28.80;99.90;;;;;;5063846;28;20954;-73
2023/08/20 09:14:57;;;;;;;16.90;9.90;;;29.00;99.90;;;;;;5070746;28;20423;-73
2023/08/20 09:17:27;;;;;;;13.77;9.53;;;29.00;99.90;;;;;;5072155;28;20513;-73
2023/08/20 09:19:57;;;;;;;15.65;9.18;;;29.10;99.90;;;;;;5073370;28;20422;-73
2023/08/20 09:22:23;;;;;;;18.85;9.00;;;29.20;99.90;;;;;;5075236;28;20418;-73
2023/08/20 09:24:56;;;;;;;16.00;8.70;;;29.30;99.90;;;;;;5073493;28;21233;-73
2023/08/20 09:27:24;;;;;;;18.35;8.90;;;29.40;99.90;;;;;;5077009;28;21259;-73
2023/08/20 09:29:59;;;;;;;16.02;8.80;;;29.50;99.90;;;;;;5068951;28;20496;-73
2023/08/20 16:03:21;;;;;;;17.27;10.03;;;27.80;99.90;;;;;;5027465;28;20755;-74
2023/08/20 16:05:48;;;;;;;17.45;9.82;;;27.80;99.90;;;;;;5003703;28;20413;-74
2023/08/20 16:08:14;;;;;;;17.38;10.27;;;27.80;99.90;;;;;;5010252;28;20453;-74
2023/08/20 16:10:41;;;;;;;16.42;9.40;;;27.80;99.90;;;;;;5022962;28;20423;-74
2023/08/20 16:13:07;;;;;;;19.02;10.70;;;27.80;99.90;;;;;;5020027;28;20829;-74
2023/08/20 16:15:35;;;;;;;14.18;9.50;;;27.80;99.90;;;;;;5005036;28;20460;-74
2023/08/20 16:18:02;;;;;;;24.20;9.75;;;27.90;99.90;;;;;;5019925;28;20417;-74
2023/08/20 16:20:28;;;;;;;14.63;9.80;;;27.80;99.90;;;;;;5006945;28;20469;-74
2023/08/20 16:22:55;;;;;;;17.05;9.38;;;27.80;99.90;;;;;;5009203;28;20428;-74
2023/08/20 16:25:22;;;;;;;15.13;9.68;;;27.80;99.90;;;;;;5007318;28;20969;-74
2023/08/20 16:27:48;;;;;;;15.18;9.20;;;27.80;99.90;;;;;;5008351;28;20468;-74
2023/08/20 16:30:14;;;;;;;15.95;9.60;;;27.80;99.90;;;;;;5014257;28;21431;-74
2023/08/20 16:32:41;;;;;;;15.13;9.38;;;27.70;99.90;;;;;;4999057;28;20934;-74
2023/08/20 16:35:08;;;;;;;12.73;8.70;;;27.60;99.90;;;;;;5017168;28;20523;-74
2023/08/20 16:37:34;;;;;;;19.25;9.50;;;27.60;99.90;;;;;;5039881;28;21076;-74
2023/08/20 16:40:04;;;;;;;18.00;9.60;;;27.50;99.90;;;;;;5016023;28;20416;-74
2023/08/20 16:42:30;;;;;;;21.20;10.02;;;27.50;99.90;;;;;;5009439;28;20435;-74
2023/08/20 16:44:57;;;;;;;18.30;9.38;;;27.50;99.90;;;;;;5020117;28;20419;-74
2023/08/20 16:47:23;;;;;;;17.27;9.57;;;27.40;99.90;;;;;;4989864;28;20493;-74
2023/08/20 16:49:49;;;;;;;15.83;9.40;;;27.40;99.90;;;;;;5008837;28;20538;-74
2023/08/20 16:52:16;;;;;;;16.58;9.60;;;27.40;99.90;;;;;;5005640;28;20408;-74
2023/08/20 16:54:48;;;;;;;14.50;9.38;;;27.40;99.90;;;;;;5012587;28;20506;-74
2023/08/20 16:57:14;;;;;;;18.67;10.07;;;27.40;99.90;;;;;;5022980;28;21522;-74
2023/08/20 16:59:41;;;;;;;15.13;9.98;;;27.40;99.90;;;;;;5013796;28;20422;-74
2023/08/20 17:02:07;;;;;;;17.50;9.63;;;27.40;99.90;;;;;;5023610;28;21076;-74
2023/08/20 17:04:34;;;;;;;18.05;9.70;;;27.30;99.90;;;;;;5003703;28;20938;-74
2023/08/20 17:07:01;;;;;;;17.10;10.00;;;27.30;99.90;;;;;;5037659;28;20415;-74
2023/08/20 17:09:27;;;;;;;17.48;9.82;;;27.20;99.90;;;;;;5023193;28;20416;-74
2023/08/20 17:11:53;;;;;;;16.42;9.80;;;27.10;99.90;;;;;;5011532;28;20424;-74
2023/08/20 17:14:20;;;;;;;16.42;9.90;;;27.10;99.90;;;;;;5017639;28;20416;-74
2023/08/20 17:16:46;;;;;;;14.70;9.60;;;27.00;99.90;;;;;;5000565;28;20476;-74
2023/08/20 17:19:16;;;;;;;19.40;9.75;;;27.00;99.90;;;;;;4999484;28;21016;-74
2023/08/20 17:21:43;;;;;;;16.03;9.80;;;26.90;99.90;;;;;;4987901;28;20420;-74
2023/08/20 17:24:10;;;;;;;13.75;9.18;;;26.90;99.90;;;;;;5009155;28;20475;-74
2023/08/20 17:26:37;;;;;;;15.93;9.70;;;26.80;99.90;;;;;;5015627;28;20511;-74
2023/08/20 17:29:04;;;;;;;12.93;9.40;;;26.80;99.90;;;;;;5016321;28;20483;-74
2023/08/20 17:31:30;;;;;;;15.55;8.95;;;26.70;99.90;;;;;;5012333;28;20473;-74
2023/08/20 17:33:57;;;;;;;15.87;9.00;;;26.60;99.90;;;;;;4987872;28;20626;-74
2023/08/20 17:36:23;;;;;;;16.35;9.15;;;26.60;99.90;;;;;;5002889;28;20494;-74
2023/08/20 17:38:49;;;;;;;16.95;9.45;;;26.50;99.90;;;;;;4997417;28;20409;-74
2023/08/20 17:41:16;;;;;;;18.73;9.15;;;26.50;99.90;;;;;;4995002;28;20429;-74
2023/08/20 17:43:42;;;;;;;20.48;9.43;;;26.40;99.90;;;;;;5014522;28;20423;-74
2023/08/20 17:46:12;;;;;;;19.02;10.00;;;26.40;99.90;;;;;;5029833;28;20509;-74
2023/08/20 17:48:40;;;;;;;18.17;10.37;;;26.30;99.90;;;;;;5018617;28;20442;-74
2023/08/20 17:51:06;;;;;;;19.77;10.53;;;26.30;99.90;;;;;;5012176;28;20420;-74
2023/08/20 17:53:33;;;;;;;19.35;10.70;;;26.20;99.90;;;;;;5019423;28;20450;-74
2023/08/20 17:55:59;;;;;;;16.15;10.15;;;26.10;99.90;;;;;;4994797;28;20452;-74
2023/08/20 17:58:25;;;;;;;16.95;10.35;;;26.10;99.90;;;;;;5000030;28;20935;-74
2023/08/20 18:00:52;;;;;;;15.10;10.23;;;26.20;99.90;;;;;;4985795;28;20496;-74
2023/08/20 18:03:19;;;;;;;17.48;10.45;;;26.10;99.90;;;;;;5033809;28;20822;-74
2023/08/20 18:05:45;;;;;;;17.90;10.67;;;26.00;99.90;;;;;;4998123;28;20420;-74
2023/08/20 18:08:12;;;;;;;16.05;10.05;;;26.00;99.90;;;;;;5017280;28;20758;-74
2023/08/20 18:10:39;;;;;;;17.52;9.95;;;26.00;99.90;;;;;;5008979;28;20439;-74
2023/08/20 18:13:07;;;;;;;16.00;10.23;;;26.00;99.90;;;;;;5014584;28;20510;-74
2023/08/20 18:15:34;;;;;;;15.25;10.15;;;26.00;99.90;;;;;;5025448;28;20424;-74
2023/08/20 18:18:01;;;;;;;18.80;10.52;;;25.90;99.90;;;;;;4998656;28;20538;-74
2023/08/20 18:20:27;;;;;;;17.60;10.40;;;25.90;99.90;;;;;;4989878;28;20418;-74
2023/08/20 18:22:54;;;;;;;16.20;9.90;;;25.90;99.90;;;;;;5011987;28;20940;-74
2023/08/20 18:25:21;;;;;;;14.95;10.07;;;25.80;99.90;;;;;;4997083;28;20424;-74
2023/08/20 18:27:47;;;;;;;18.20;10.98;;;25.80;99.90;;;;;;4978014;28;20861;-74
2023/08/20 18:30:14;;;;;;;19.13;10.80;;;25.80;99.90;;;;;;5019763;28;20413;-74
2023/08/20 18:32:41;;;;;;;18.47;10.73;;;25.80;99.90;;;;;;5017385;28;20433;-74
2023/08/20 18:35:08;;;;;;;19.85;11.43;;;25.70;99.90;;;;;;5009774;28;20455;-74
2023/08/20 18:37:35;;;;;;;17.00;10.90;;;25.70;99.90;;;;;;4996705;28;20419;-74
2023/08/20 18:40:03;;;;;;;17.05;11.18;;;25.70;99.90;;;;;;4991514;28;20417;-74
2023/08/20 18:42:30;;;;;;;20.73;11.10;;;25.60;99.90;;;;;;5002106;28;20925;-74
2023/08/20 18:44:56;;;;;;;17.50;11.07;;;25.60;99.90;;;;;;5013949;28;20490;-74
2023/08/20 18:47:22;;;;;;;17.13;11.05;;;25.60;99.90;;;;;;5014484;28;21028;-74
2023/08/20 18:49:51;;;;;;;16.95;11.25;;;25.60;99.90;;;;;;4983039;28;20489;-74
2023/08/20 18:52:18;;;;;;;16.48;11.27;;;25.60;99.90;;;;;;5002782;28;20925;-74
2023/08/20 18:54:45;;;;;;;18.85;10.73;;;25.60;99.90;;;;;;4990354;28;20455;-74
2023/08/20 18:57:13;;;;;;;17.75;11.65;;;25.60;99.90;;;;;;4998384;28;20437;-74
2023/08/20 18:59:39;;;;;;;19.33;11.50;;;25.60;99.90;;;;;;5004182;28;20415;-74
2023/08/20 19:02:06;;;;;;;20.10;11.88;;;25.60;99.90;;;;;;5014504;28;20428;-74